createdAt,value
2019-03-13T00:01:42.602Z,85.45
2019-03-13T00:05:46.164Z,85.29
2019-03-13T00:09:48.447Z,85.28
2019-03-13T00:13:52.176Z,85.03
2019-03-13T00:17:54.433Z,84.98
2019-03-13T00:21:56.953Z,84.90
2019-03-13T00:26:06.449Z,84.75
2019-03-13T00:30:09.644Z,84.67
2019-03-13T00:34:11.940Z,84.68
2019-03-13T00:38:14.289Z,84.87
2019-03-13T00:42:16.668Z,84.38
2019-03-13T00:46:19.551Z,84.55
2019-03-13T00:50:26.535Z,84.81
2019-03-13T00:54:29.646Z,84.90
2019-03-13T00:58:32.279Z,84.80
2019-03-13T01:02:40.214Z,84.70
2019-03-13T01:06:45.338Z,84.58
2019-03-13T01:10:47.918Z,84.59
2019-03-13T01:14:50.497Z,84.39
2019-03-13T01:18:53.241Z,84.33
2019-03-13T01:22:56.831Z,84.61
2019-03-13T01:26:59.740Z,84.47
2019-03-13T01:31:14.003Z,84.41
2019-03-13T01:35:23.410Z,84.53
2019-03-13T01:39:25.917Z,84.48
2019-03-13T01:43:28.751Z,84.20
2019-03-13T01:47:31.180Z,84.20
2019-03-13T01:51:33.916Z,84.44
2019-03-13T01:55:38.401Z,84.81
2019-03-13T01:59:41.426Z,84.68
2019-03-13T02:03:43.996Z,84.53
2019-03-13T02:07:46.909Z,84.38
2019-03-13T02:11:49.608Z,84.51
2019-03-13T02:15:52.680Z,84.58
2019-03-13T02:19:55.826Z,84.60
2019-03-13T02:23:58.549Z,84.23
2019-03-13T02:28:01.367Z,84.37
2019-03-13T02:32:05.166Z,84.43
2019-03-13T02:36:07.883Z,84.59
2019-03-13T02:40:11.515Z,84.46
2019-03-13T02:44:14.023Z,84.27
2019-03-13T02:48:16.546Z,84.11
2019-03-13T02:52:19.298Z,84.06
2019-03-13T02:56:22.136Z,83.90
2019-03-13T03:00:37.919Z,83.96
2019-03-13T03:04:41.226Z,83.82
2019-03-13T03:08:43.846Z,84.23
2019-03-13T03:12:46.761Z,83.88
2019-03-13T03:16:49.233Z,83.91
2019-03-13T03:20:51.982Z,83.77
2019-03-13T03:24:54.700Z,83.76
2019-03-13T03:28:57.392Z,83.83
2019-03-13T03:33:00.091Z,83.77
2019-03-13T03:37:02.924Z,83.61
2019-03-13T03:41:05.501Z,83.65
2019-03-13T03:45:08.412Z,83.87
2019-03-13T03:49:11.005Z,83.72
2019-03-13T03:53:13.762Z,83.89
2019-03-13T03:57:17.309Z,83.66
2019-03-13T04:01:19.972Z,83.77
2019-03-13T04:05:22.881Z,83.81
2019-03-13T04:09:25.621Z,83.74
2019-03-13T04:13:28.343Z,83.56
2019-03-13T04:17:31.343Z,83.68
2019-03-13T04:21:33.926Z,83.65
2019-03-13T04:25:37.646Z,83.60
2019-03-13T04:29:40.812Z,83.54
2019-03-13T04:33:43.506Z,83.71
2019-03-13T04:37:46.124Z,83.75
2019-03-13T04:41:48.792Z,83.39
2019-03-13T04:45:51.420Z,83.42
2019-03-13T04:49:54.042Z,83.27
2019-03-13T04:53:56.483Z,83.55
2019-03-13T04:57:59.681Z,83.25
2019-03-13T05:02:02.465Z,83.43
2019-03-13T05:06:18.840Z,83.55
2019-03-13T05:10:21.447Z,83.98
2019-03-13T05:14:26.705Z,83.92
2019-03-13T05:18:29.304Z,84.59
2019-03-13T05:22:32.072Z,84.39
2019-03-13T05:26:34.676Z,83.83
2019-03-13T05:30:37.370Z,83.96
2019-03-13T05:34:39.990Z,84.09
2019-03-13T05:38:42.980Z,83.93
2019-03-13T05:42:45.690Z,84.42
2019-03-13T05:46:48.324Z,84.50
2019-03-13T05:50:50.863Z,85.20
2019-03-13T05:54:53.524Z,85.08
2019-03-13T05:58:56.357Z,85.08
2019-03-13T06:02:59.011Z,84.68
2019-03-13T06:07:01.661Z,84.45
2019-03-13T06:11:04.576Z,84.28
2019-03-13T06:15:07.517Z,84.37
2019-03-13T06:19:10.429Z,84.34
2019-03-13T06:23:14.140Z,83.91
2019-03-13T06:27:17.104Z,83.60
2019-03-13T06:31:20.199Z,83.39
2019-03-13T06:35:23.994Z,83.68
2019-03-13T06:39:26.878Z,83.58
2019-03-13T06:43:29.799Z,83.25
2019-03-13T06:47:32.060Z,83.29
2019-03-13T06:51:34.528Z,83.26
2019-03-13T06:55:36.771Z,83.23
2019-03-13T06:59:58.748Z,82.73
2019-03-13T07:04:21.144Z,82.51
2019-03-13T07:08:34.167Z,82.72
2019-03-13T07:13:01.157Z,82.71
2019-03-13T07:17:29.435Z,82.88
2019-03-13T07:21:48.719Z,82.78
2019-03-13T07:25:57.314Z,82.60
2019-03-13T07:30:14.393Z,82.29
2019-03-13T07:34:32.551Z,82.14
2019-03-13T07:38:56.647Z,82.00
2019-03-13T07:43:06.313Z,82.00
2019-03-13T07:47:33.232Z,82.18
2019-03-13T07:51:49.331Z,82.20
2019-03-13T07:56:10.458Z,82.21
2019-03-13T08:00:47.044Z,82.38
2019-03-13T08:04:59.518Z,82.31
2019-03-13T08:09:21.029Z,82.35
2019-03-13T08:13:40.940Z,82.31
2019-03-13T08:18:04.908Z,82.27
2019-03-13T08:22:32.130Z,82.18
2019-03-13T08:26:50.387Z,82.07
2019-03-13T08:31:10.170Z,82.00
2019-03-13T08:35:31.314Z,82.19
2019-03-13T08:40:04.990Z,82.14
2019-03-13T08:44:32.658Z,81.86
2019-03-13T08:49:02.627Z,81.23
2019-03-13T08:53:22.615Z,81.18
2019-03-13T08:57:39.469Z,80.78
2019-03-13T09:02:00.645Z,80.60
2019-03-13T09:06:30.914Z,80.34
2019-03-13T09:10:47.820Z,79.91
2019-03-13T09:15:12.195Z,79.49
2019-03-13T09:19:42.688Z,78.97
2019-03-13T09:24:02.728Z,78.72
2019-03-13T09:28:22.702Z,78.22
2019-03-13T09:32:47.741Z,78.03
2019-03-13T09:37:18.221Z,77.58
2019-03-13T09:41:39.382Z,77.36
2019-03-13T09:46:03.820Z,76.36
2019-03-13T09:50:25.176Z,76.24
2019-03-13T09:54:45.190Z,75.00
2019-03-13T09:59:15.761Z,75.25
2019-03-13T10:03:37.368Z,75.18
2019-03-13T10:07:45.629Z,74.96
2019-03-13T10:11:56.978Z,74.71
2019-03-13T10:16:14.523Z,74.58
2019-03-13T10:20:26.848Z,73.87
2019-03-13T10:24:46.891Z,73.79
2019-03-13T10:29:17.471Z,73.21
2019-03-13T10:33:26.851Z,73.30
2019-03-13T10:37:54.003Z,73.32
2019-03-13T10:42:08.297Z,72.69
2019-03-13T10:46:29.386Z,72.25
2019-03-13T10:50:54.706Z,71.11
2019-03-13T10:55:15.120Z,70.58
2019-03-13T10:59:32.803Z,68.05
2019-03-13T11:03:57.103Z,67.79
2019-03-13T11:08:11.441Z,64.97
2019-03-13T11:12:28.789Z,65.17
2019-03-13T11:16:59.015Z,64.79
2019-03-13T11:21:07.844Z,64.01
2019-03-13T11:25:22.189Z,63.65
2019-03-13T11:29:30.717Z,63.64
2019-03-13T11:33:50.624Z,64.20
2019-03-13T11:37:59.574Z,64.57
2019-03-13T11:42:29.834Z,62.78
2019-03-13T11:46:51.323Z,64.09
2019-03-13T11:51:11.421Z,64.56
2019-03-13T11:55:36.034Z,63.97
2019-03-13T11:59:52.577Z,63.73
2019-03-13T12:04:13.975Z,64.73
2019-03-13T12:08:24.174Z,64.72
2019-03-13T12:12:42.412Z,63.18
2019-03-13T12:17:02.551Z,64.16
2019-03-13T12:21:27.044Z,63.97
2019-03-13T12:25:46.967Z,65.12
2019-03-13T12:30:06.920Z,63.56
2019-03-13T12:34:21.009Z,65.03
2019-03-13T12:38:45.122Z,65.39
2019-03-13T12:43:18.276Z,65.45
2019-03-13T12:47:42.800Z,65.28
2019-03-13T12:52:13.342Z,64.57
2019-03-13T12:56:43.528Z,64.60
2019-03-13T13:01:12.273Z,63.60
2019-03-13T13:05:24.492Z,64.54
2019-03-13T13:09:44.721Z,64.59
2019-03-13T13:14:05.573Z,65.05
2019-03-13T13:18:21.611Z,65.13
2019-03-13T13:22:24.033Z,65.09
2019-03-13T13:26:26.297Z,65.27
2019-03-13T13:30:28.779Z,65.70
2019-03-13T13:34:31.099Z,65.80
2019-03-13T13:38:33.574Z,66.50
2019-03-13T13:42:35.843Z,65.80
2019-03-13T13:46:40.539Z,67.01
2019-03-13T13:50:42.806Z,66.69
2019-03-13T13:54:46.207Z,65.74
2019-03-13T13:58:48.472Z,66.40
2019-03-13T14:02:51.562Z,66.72
2019-03-13T14:06:54.638Z,66.22
2019-03-13T14:10:57.313Z,66.27
2019-03-13T14:15:00.504Z,66.18
2019-03-13T14:19:03.588Z,66.61
2019-03-13T14:23:05.855Z,66.86
2019-03-13T14:27:14.480Z,67.30
2019-03-13T14:31:12.700Z,67.90
2019-03-13T14:35:15.141Z,68.09
2019-03-13T14:39:18.410Z,68.42
2019-03-13T14:43:20.763Z,68.54
2019-03-13T14:47:23.045Z,69.00
2019-03-13T14:51:25.515Z,69.22
2019-03-13T14:55:27.839Z,69.44
2019-03-13T14:59:30.194Z,69.63
2019-03-13T15:03:32.443Z,69.98
2019-03-13T15:07:34.823Z,70.47
2019-03-13T15:11:37.089Z,70.84
2019-03-13T15:15:39.815Z,71.33
2019-03-13T15:19:45.414Z,71.50
2019-03-13T15:23:49.613Z,71.50
2019-03-13T15:27:51.925Z,71.80
2019-03-13T15:31:54.252Z,72.17
2019-03-13T15:35:56.544Z,72.44
2019-03-13T15:39:58.850Z,72.79
2019-03-13T15:44:01.084Z,73.03
2019-03-13T15:48:03.480Z,73.53
2019-03-13T15:52:05.754Z,73.35
2019-03-13T15:56:08.204Z,73.72
2019-03-13T16:00:16.921Z,73.93
2019-03-13T16:04:20.219Z,73.85
2019-03-13T16:08:22.479Z,74.21
2019-03-13T16:12:24.820Z,73.92
2019-03-13T16:16:27.055Z,74.06
2019-03-13T16:20:29.387Z,74.12
2019-03-13T16:24:33.031Z,74.49
2019-03-13T16:28:35.546Z,74.25
2019-03-13T16:32:43.748Z,74.53
2019-03-13T16:36:44.229Z,74.63
2019-03-13T16:40:48.120Z,75.15
2019-03-13T16:44:50.657Z,75.31
2019-03-13T16:48:52.944Z,75.82
2019-03-13T16:52:55.304Z,76.07
2019-03-13T16:56:57.673Z,76.13
2019-03-13T17:01:00.121Z,76.27
2019-03-13T17:05:02.360Z,76.34
2019-03-13T17:09:07.155Z,76.54
2019-03-13T17:13:10.413Z,76.59
2019-03-13T17:17:12.787Z,76.96
2019-03-13T17:21:15.077Z,76.79
2019-03-13T17:25:18.560Z,76.53
2019-03-13T17:29:21.277Z,76.57
2019-03-13T17:33:23.626Z,76.75
2019-03-13T17:37:25.922Z,76.87
2019-03-13T17:41:28.367Z,76.81
2019-03-13T17:45:32.167Z,76.62
2019-03-13T17:49:34.499Z,76.16
2019-03-13T17:53:36.881Z,75.66
2019-03-13T17:57:39.265Z,75.53
2019-03-13T18:01:41.663Z,75.38
2019-03-13T18:05:44.359Z,75.34
2019-03-13T18:09:46.621Z,75.11
2019-03-13T18:13:49.004Z,75.67
2019-03-13T18:17:52.518Z,75.78
2019-03-13T18:21:54.859Z,76.20
2019-03-13T18:25:57.358Z,77.12
2019-03-13T18:29:59.869Z,77.65
2019-03-13T18:34:02.183Z,78.41
2019-03-13T18:38:04.518Z,79.54
2019-03-13T18:42:07.073Z,81.01
2019-03-13T18:46:09.654Z,81.15
2019-03-13T18:50:13.129Z,82.23
2019-03-13T18:54:15.477Z,82.50
2019-03-13T18:58:17.714Z,83.10
2019-03-13T19:02:20.024Z,83.51
2019-03-13T19:06:22.359Z,83.88
2019-03-13T19:10:25.417Z,83.96
2019-03-13T19:14:27.766Z,83.95
2019-03-13T19:18:30.150Z,84.76
2019-03-13T19:22:32.636Z,84.92
2019-03-13T19:26:34.995Z,85.10
2019-03-13T19:30:38.205Z,85.15
2019-03-13T19:34:40.810Z,85.39
2019-03-13T19:38:43.152Z,85.76
2019-03-13T19:42:47.480Z,86.20
2019-03-13T19:46:49.877Z,86.47
2019-03-13T19:50:52.260Z,86.74
2019-03-13T19:54:54.577Z,86.93
2019-03-13T19:58:57.331Z,86.92
2019-03-13T20:03:00.755Z,87.19
2019-03-13T20:07:03.563Z,87.37
2019-03-13T20:11:06.124Z,87.51
2019-03-13T20:15:10.279Z,87.75
2019-03-13T20:19:12.593Z,88.05
2019-03-13T20:23:14.955Z,87.87
2019-03-13T20:27:17.358Z,87.94
2019-03-13T20:31:20.087Z,88.03
2019-03-13T20:35:22.465Z,88.33
2019-03-13T20:39:25.081Z,88.26
2019-03-13T20:43:27.864Z,88.27
2019-03-13T20:47:30.512Z,88.32
2019-03-13T20:51:32.860Z,88.38
2019-03-13T20:55:35.345Z,88.52
2019-03-13T20:59:37.867Z,88.60
2019-03-13T21:03:40.476Z,88.70
2019-03-13T21:07:42.823Z,88.70
2019-03-13T21:11:45.277Z,88.70
2019-03-13T21:15:47.544Z,89.08
2019-03-13T21:19:49.891Z,88.90
2019-03-13T21:23:52.223Z,88.94
2019-03-13T21:27:54.547Z,88.98
2019-03-13T21:31:57.483Z,89.06
2019-03-13T21:35:59.810Z,89.21
2019-03-13T21:40:02.056Z,89.20
2019-03-13T21:44:05.600Z,89.09
2019-03-13T21:48:07.841Z,89.24
2019-03-13T21:52:10.244Z,89.24
2019-03-13T21:56:12.477Z,89.32
2019-03-13T22:00:18.266Z,89.21
2019-03-13T22:04:24.444Z,89.24
2019-03-13T22:08:24.759Z,89.34
2019-03-13T22:12:27.086Z,89.06
2019-03-13T22:16:29.455Z,89.17
2019-03-13T22:20:31.733Z,89.22
2019-03-13T22:24:34.189Z,89.35
2019-03-13T22:28:37.665Z,89.23
2019-03-13T22:32:40.409Z,89.35
2019-03-13T22:36:42.927Z,89.23
2019-03-13T22:40:45.253Z,89.34
2019-03-13T22:44:47.809Z,89.27
2019-03-13T22:48:58.105Z,89.42
2019-03-13T22:52:54.478Z,89.43
2019-03-13T22:56:56.950Z,89.38
2019-03-13T23:01:06.176Z,89.48
2019-03-13T23:05:09.677Z,89.25
2019-03-13T23:09:14.015Z,89.49
2019-03-13T23:13:17.599Z,89.71
2019-03-13T23:17:20.289Z,89.85
2019-03-13T23:21:22.712Z,90.05
2019-03-13T23:25:24.980Z,90.07
2019-03-13T23:29:27.363Z,90.22
2019-03-13T23:33:29.970Z,90.06
2019-03-13T23:37:32.304Z,90.09
2019-03-13T23:41:34.564Z,90.06
2019-03-13T23:45:36.879Z,90.13
2019-03-13T23:49:39.154Z,90.21
2019-03-13T23:53:41.548Z,90.20
2019-03-13T23:57:43.911Z,90.12
